sensor_id;sensor_type;location;lat;lon;timestamp;pressure;altitude;pressure_sealevel;temperature;humidity
38558;BME280;24333;42.626;23.308;2023-03-12T00:01:47;91318.06;;;0.54;90.32
38558;BME280;24333;42.626;23.308;2023-03-12T00:04:12;91325.66;;;0.52;94.09
38558;BME280;24333;42.626;23.308;2023-03-12T00:06:37;91311.81;;;0.37;90.31
38558;BME280;24333;42.626;23.308;2023-03-12T00:09:04;91328.13;;;0.45;91.84
38558;BME280;24333;42.626;23.308;2023-03-12T00:11:30;91338.41;;;0.42;93.06
38558;BME280;24333;42.626;23.308;2023-03-12T00:13:56;91323.66;;;0.36;93.20
38558;BME280;24333;42.626;23.308;2023-03-12T00:16:22;91344.75;;;0.38;93.43
38558;BME280;24333;42.626;23.308;2023-03-12T00:18:49;91333.59;;;0.36;94.22
38558;BME280;24333;42.626;23.308;2023-03-12T00:21:15;91339.84;;;0.40;95.95
38558;BME280;24333;42.626;23.308;2023-03-12T00:23:41;91341.19;;;0.34;90.93
38558;BME280;24333;42.626;23.308;2023-03-12T00:26:10;91340.28;;;0.30;90.50
38558;BME280;24333;42.626;23.308;2023-03-12T00:28:36;91326.28;;;0.24;89.94
38558;BME280;24333;42.626;23.308;2023-03-12T00:31:11;91328.44;;;0.31;86.69
38558;BME280;24333;42.626;23.308;2023-03-12T00:33:37;91336.13;;;0.20;86.35
38558;BME280;24333;42.626;23.308;2023-03-12T00:36:02;91327.84;;;0.25;87.98
38558;BME280;24333;42.626;23.308;2023-03-12T00:38:28;91356.13;;;0.22;85.10
38558;BME280;24333;42.626;23.308;2023-03-12T00:40:53;91341.72;;;0.27;84.13
38558;BME280;24333;42.626;23.308;2023-03-12T00:43:19;91338.66;;;0.16;85.86
38558;BME280;24333;42.626;23.308;2023-03-12T00:45:44;91339.78;;;0.15;84.47
38558;BME280;24333;42.626;23.308;2023-03-12T00:48:12;91328.41;;;0.18;85.33
38558;BME280;24333;42.626;23.308;2023-03-12T00:50:44;91326.19;;;0.20;74.86
38558;BME280;24333;42.626;23.308;2023-03-12T00:53:09;91338.25;;;0.26;75.40
38558;BME280;24333;42.626;23.308;2023-03-12T00:55:35;91328.44;;;0.31;66.34
38558;BME280;24333;42.626;23.308;2023-03-12T00:58:00;91317.94;;;0.25;72.19
38558;BME280;24333;42.626;23.308;2023-03-12T01:00:26;91340.50;;;0.37;71.39
38558;BME280;24333;42.626;23.308;2023-03-12T01:02:51;91328.66;;;0.25;76.57
38558;BME280;24333;42.626;23.308;2023-03-12T01:05:17;91349.00;;;0.26;76.50
38558;BME280;24333;42.626;23.308;2023-03-12T01:07:43;91337.69;;;0.21;75.63
38558;BME280;24333;42.626;23.308;2023-03-12T01:10:12;91351.31;;;0.16;79.94
38558;BME280;24333;42.626;23.308;2023-03-12T01:12:39;91350.41;;;0.11;75.00
38558;BME280;24333;42.626;23.308;2023-03-12T01:15:05;91351.16;;;0.12;73.57
38558;BME280;24333;42.626;23.308;2023-03-12T01:17:32;91354.66;;;0.12;73.64
38558;BME280;24333;42.626;23.308;2023-03-12T01:19:58;91362.16;;;0.19;76.96
38558;BME280;24333;42.626;23.308;2023-03-12T01:22:27;91384.72;;;0.18;73.88
38558;BME280;24333;42.626;23.308;2023-03-12T01:24:53;91382.69;;;0.15;73.96
38558;BME280;24333;42.626;23.308;2023-03-12T01:27:22;91373.53;;;0.16;73.78
38558;BME280;24333;42.626;23.308;2023-03-12T01:29:49;91356.88;;;0.10;74.66
38558;BME280;24333;42.626;23.308;2023-03-12T01:32:14;91360.88;;;0.04;77.22
38558;BME280;24333;42.626;23.308;2023-03-12T01:34:41;91352.94;;;0.08;75.01
38558;BME280;24333;42.626;23.308;2023-03-12T01:37:07;91342.69;;;0.10;74.28
38558;BME280;24333;42.626;23.308;2023-03-12T01:39:32;91337.00;;;0.11;64.86
38558;BME280;24333;42.626;23.308;2023-03-12T01:41:58;91361.06;;;0.20;66.63
38558;BME280;24333;42.626;23.308;2023-03-12T01:44:24;91356.44;;;0.21;64.26
38558;BME280;24333;42.626;23.308;2023-03-12T01:46:53;91372.31;;;0.26;64.40
38558;BME280;24333;42.626;23.308;2023-03-12T01:49:31;91360.84;;;0.25;63.24
38558;BME280;24333;42.626;23.308;2023-03-12T01:52:22;91365.53;;;0.28;64.70
38558;BME280;24333;42.626;23.308;2023-03-12T01:57:30;91393.69;;;0.22;62.79
38558;BME280;24333;42.626;23.308;2023-03-12T02:00:02;91382.28;;;0.25;62.99
38558;BME280;24333;42.626;23.308;2023-03-12T02:02:29;91392.56;;;0.23;65.38
38558;BME280;24333;42.626;23.308;2023-03-12T02:05:21;91388.63;;;0.21;68.38
38558;BME280;24333;42.626;23.308;2023-03-12T02:07:52;91378.13;;;0.16;67.71
38558;BME280;24333;42.626;23.308;2023-03-12T02:10:20;91375.31;;;0.12;66.33
38558;BME280;24333;42.626;23.308;2023-03-12T02:12:49;91368.81;;;0.13;67.04
38558;BME280;24333;42.626;23.308;2023-03-12T02:15:15;91375.66;;;0.10;64.91
38558;BME280;24333;42.626;23.308;2023-03-12T02:17:42;91369.50;;;0.10;62.56
38558;BME280;24333;42.626;23.308;2023-03-12T02:23:37;91364.56;;;0.12;59.89
38558;BME280;24333;42.626;23.308;2023-03-12T02:26:06;91352.91;;;-0.05;63.97
38558;BME280;24333;42.626;23.308;2023-03-12T02:28:33;91381.78;;;0.11;61.07
38558;BME280;24333;42.626;23.308;2023-03-12T02:31:06;91382.44;;;0.08;60.89
38558;BME280;24333;42.626;23.308;2023-03-12T02:33:34;91371.84;;;0.11;58.37
38558;BME280;24333;42.626;23.308;2023-03-12T02:35:59;91395.09;;;0.20;57.83
38558;BME280;24333;42.626;23.308;2023-03-12T02:38:40;91391.97;;;0.18;57.61
38558;BME280;24333;42.626;23.308;2023-03-12T02:41:30;91375.88;;;0.18;54.35
38558;BME280;24333;42.626;23.308;2023-03-12T02:44:16;91411.34;;;0.23;54.21
38558;BME280;24333;42.626;23.308;2023-03-12T02:47:01;91409.75;;;0.22;53.56
38558;BME280;24333;42.626;23.308;2023-03-12T02:50:01;91421.25;;;0.23;54.36
38558;BME280;24333;42.626;23.308;2023-03-12T02:52:32;91441.81;;;0.19;55.19
38558;BME280;24333;42.626;23.308;2023-03-12T02:55:01;91400.75;;;0.06;56.39
38558;BME280;24333;42.626;23.308;2023-03-12T02:57:26;91407.94;;;0.14;55.33
38558;BME280;24333;42.626;23.308;2023-03-12T02:59:57;91398.75;;;0.15;54.40
38558;BME280;24333;42.626;23.308;2023-03-12T03:02:37;91414.31;;;0.22;55.29
38558;BME280;24333;42.626;23.308;2023-03-12T03:05:05;91411.72;;;0.13;54.63
38558;BME280;24333;42.626;23.308;2023-03-12T03:07:32;91419.44;;;0.14;54.63
38558;BME280;24333;42.626;23.308;2023-03-12T03:09:57;91390.28;;;0.13;53.53
38558;BME280;24333;42.626;23.308;2023-03-12T03:12:31;91384.66;;;0.06;53.68
38558;BME280;24333;42.626;23.308;2023-03-12T03:14:57;91404.94;;;0.16;54.04
38558;BME280;24333;42.626;23.308;2023-03-12T03:17:44;91424.34;;;0.12;53.40
38558;BME280;24333;42.626;23.308;2023-03-12T03:20:10;91404.13;;;0.15;53.64
38558;BME280;24333;42.626;23.308;2023-03-12T03:22:37;91394.06;;;0.12;53.49
38558;BME280;24333;42.626;23.308;2023-03-12T03:25:05;91398.13;;;0.18;53.91
38558;BME280;24333;42.626;23.308;2023-03-12T03:27:32;91382.22;;;0.13;54.12
38558;BME280;24333;42.626;23.308;2023-03-12T03:29:59;91379.53;;;0.13;54.51
38558;BME280;24333;42.626;23.308;2023-03-12T04:40:03;91468.53;;;-0.36;55.87
38558;BME280;24333;42.626;23.308;2023-03-12T04:42:33;91464.13;;;-0.32;55.71
38558;BME280;24333;42.626;23.308;2023-03-12T04:44:59;91480.97;;;-0.32;55.39
38558;BME280;24333;42.626;23.308;2023-03-12T04:47:26;91503.91;;;-0.22;55.91
38558;BME280;24333;42.626;23.308;2023-03-12T04:49:51;91497.94;;;-0.27;55.03
38558;BME280;24333;42.626;23.308;2023-03-12T04:52:17;91506.00;;;-0.27;55.20
38558;BME280;24333;42.626;23.308;2023-03-12T04:54:43;91494.81;;;-0.30;54.92
38558;BME280;24333;42.626;23.308;2023-03-12T04:57:09;91510.38;;;-0.23;54.12
38558;BME280;24333;42.626;23.308;2023-03-12T04:59:35;91508.00;;;-0.24;53.10
38558;BME280;24333;42.626;23.308;2023-03-12T05:02:00;91512.06;;;-0.18;53.69
38558;BME280;24333;42.626;23.308;2023-03-12T05:07:01;91491.63;;;-0.23;52.09
38558;BME280;24333;42.626;23.308;2023-03-12T05:09:26;91509.38;;;-0.18;52.92
38558;BME280;24333;42.626;23.308;2023-03-12T05:11:52;91537.13;;;-0.14;52.37
38558;BME280;24333;42.626;23.308;2023-03-12T05:14:17;91557.09;;;-0.03;53.01
38558;BME280;24333;42.626;23.308;2023-03-12T05:16:46;91544.34;;;-0.06;53.19
38558;BME280;24333;42.626;23.308;2023-03-12T05:19:16;91529.81;;;-0.05;53.57
38558;BME280;24333;42.626;23.308;2023-03-12T05:22:03;91565.06;;;0.06;53.16
38558;BME280;24333;42.626;23.308;2023-03-12T05:24:38;91524.13;;;-0.03;53.53
38558;BME280;24333;42.626;23.308;2023-03-12T05:27:04;91550.09;;;0.05;54.21
38558;BME280;24333;42.626;23.308;2023-03-12T05:29:42;91567.69;;;0.15;53.76
38558;BME280;24333;42.626;23.308;2023-03-12T05:32:14;91549.19;;;0.01;52.74
38558;BME280;24333;42.626;23.308;2023-03-12T05:34:39;91544.59;;;0.02;52.47
38558;BME280;24333;42.626;23.308;2023-03-12T05:37:05;91538.19;;;0.15;52.26
38558;BME280;24333;42.626;23.308;2023-03-12T05:39:31;91539.91;;;0.20;50.97
38558;BME280;24333;42.626;23.308;2023-03-12T05:41:56;91544.09;;;0.30;51.15
38558;BME280;24333;42.626;23.308;2023-03-12T05:44:26;91573.41;;;0.35;50.24
38558;BME280;24333;42.626;23.308;2023-03-12T05:46:55;91556.00;;;0.41;49.89
38558;BME280;24333;42.626;23.308;2023-03-12T05:49:33;91564.75;;;0.50;48.82
38558;BME280;24333;42.626;23.308;2023-03-12T05:52:10;91567.31;;;0.47;48.14
38558;BME280;24333;42.626;23.308;2023-03-12T05:54:39;91572.88;;;0.63;49.74
38558;BME280;24333;42.626;23.308;2023-03-12T05:57:06;91573.53;;;0.60;48.67
38558;BME280;24333;42.626;23.308;2023-03-12T05:59:32;91566.03;;;0.65;48.38
38558;BME280;24333;42.626;23.308;2023-03-12T06:01:58;91567.69;;;0.79;50.23
38558;BME280;24333;42.626;23.308;2023-03-12T06:04:24;91577.88;;;0.85;47.63
38558;BME280;24333;42.626;23.308;2023-03-12T06:06:49;91572.31;;;0.91;48.70
38558;BME280;24333;42.626;23.308;2023-03-12T06:09:14;91605.44;;;0.95;48.29
38558;BME280;24333;42.626;23.308;2023-03-12T06:11:40;91583.63;;;0.96;48.01
38558;BME280;24333;42.626;23.308;2023-03-12T06:14:05;91562.13;;;0.96;47.40
38558;BME280;24333;42.626;23.308;2023-03-12T06:16:31;91595.19;;;1.09;47.58
38558;BME280;24333;42.626;23.308;2023-03-12T06:19:06;91596.31;;;1.08;47.04
38558;BME280;24333;42.626;23.308;2023-03-12T06:21:34;91601.25;;;1.19;46.17
38558;BME280;24333;42.626;23.308;2023-03-12T06:24:02;91615.50;;;1.32;46.15
38558;BME280;24333;42.626;23.308;2023-03-12T06:26:28;91607.78;;;1.30;47.88
38558;BME280;24333;42.626;23.308;2023-03-12T06:28:56;91622.81;;;1.31;46.34
38558;BME280;24333;42.626;23.308;2023-03-12T06:31:22;91620.97;;;1.23;49.12
38558;BME280;24333;42.626;23.308;2023-03-12T06:33:47;91618.47;;;1.18;50.57
38558;BME280;24333;42.626;23.308;2023-03-12T06:36:13;91603.59;;;1.08;50.18
38558;BME280;24333;42.626;23.308;2023-03-12T06:38:39;91631.69;;;1.23;50.20
38558;BME280;24333;42.626;23.308;2023-03-12T06:41:08;91633.25;;;1.11;49.25
38558;BME280;24333;42.626;23.308;2023-03-12T06:43:38;91655.97;;;1.14;50.23
38558;BME280;24333;42.626;23.308;2023-03-12T06:46:05;91635.91;;;1.11;48.90
38558;BME280;24333;42.626;23.308;2023-03-12T06:48:40;91645.03;;;1.19;50.94
38558;BME280;24333;42.626;23.308;2023-03-12T06:51:20;91651.09;;;1.28;50.61
38558;BME280;24333;42.626;23.308;2023-03-12T06:53:58;91654.13;;;1.27;50.54
38558;BME280;24333;42.626;23.308;2023-03-12T06:56:26;91645.63;;;1.25;50.14
38558;BME280;24333;42.626;23.308;2023-03-12T06:58:52;91656.25;;;1.34;49.77
38558;BME280;24333;42.626;23.308;2023-03-12T07:01:17;91661.19;;;1.32;49.81
38558;BME280;24333;42.626;23.308;2023-03-12T07:03:42;91648.63;;;1.23;50.27
38558;BME280;24333;42.626;23.308;2023-03-12T07:06:13;91647.94;;;1.26;50.77
38558;BME280;24333;42.626;23.308;2023-03-12T07:08:39;91638.19;;;1.22;50.83
38558;BME280;24333;42.626;23.308;2023-03-12T07:11:04;91664.41;;;1.25;50.75
38558;BME280;24333;42.626;23.308;2023-03-12T07:13:29;91667.09;;;1.25;50.16
38558;BME280;24333;42.626;23.308;2023-03-12T07:15:55;91673.59;;;1.24;49.84
38558;BME280;24333;42.626;23.308;2023-03-12T07:18:21;91666.00;;;1.26;50.69
38558;BME280;24333;42.626;23.308;2023-03-12T07:20:46;91666.91;;;1.30;49.77
38558;BME280;24333;42.626;23.308;2023-03-12T07:23:21;91651.09;;;1.28;49.86
38558;BME280;24333;42.626;23.308;2023-03-12T07:25:48;91685.28;;;1.40;49.44
38558;BME280;24333;42.626;23.308;2023-03-12T07:28:23;91692.72;;;1.22;50.52
38558;BME280;24333;42.626;23.308;2023-03-12T07:30:50;91692.09;;;1.38;50.17
38558;BME280;24333;42.626;23.308;2023-03-12T07:33:20;91676.06;;;1.29;50.65
38558;BME280;24333;42.626;23.308;2023-03-12T07:35:46;91701.09;;;1.42;51.41
38558;BME280;24333;42.626;23.308;2023-03-12T07:38:12;91707.19;;;1.30;50.56
38558;BME280;24333;42.626;23.308;2023-03-12T07:40:38;91697.72;;;1.45;51.71
38558;BME280;24333;42.626;23.308;2023-03-12T07:48:23;91708.31;;;1.63;49.87
38558;BME280;24333;42.626;23.308;2023-03-12T07:50:48;91698.44;;;1.54;50.89
38558;BME280;24333;42.626;23.308;2023-03-12T07:53:20;91694.03;;;1.50;51.12
38558;BME280;24333;42.626;23.308;2023-03-12T07:55:54;91678.19;;;1.36;51.03
38558;BME280;24333;42.626;23.308;2023-03-12T08:14:15;91728.00;;;1.33;56.02
38558;BME280;24333;42.626;23.308;2023-03-12T08:16:42;91715.81;;;1.14;55.22
38558;BME280;24333;42.626;23.308;2023-03-12T08:19:07;91723.56;;;0.95;55.98
38558;BME280;24333;42.626;23.308;2023-03-12T08:21:33;91730.81;;;1.15;57.59
38558;BME280;24333;42.626;23.308;2023-03-12T08:23:58;91736.75;;;1.30;56.80
38558;BME280;24333;42.626;23.308;2023-03-12T08:26:24;91752.66;;;1.35;54.19
38558;BME280;24333;42.626;23.308;2023-03-12T08:29:04;91760.81;;;1.18;53.57
38558;BME280;24333;42.626;23.308;2023-03-12T08:31:29;91770.59;;;1.22;54.05
38558;BME280;24333;42.626;23.308;2023-03-12T08:33:55;91770.91;;;1.21;53.66
38558;BME280;24333;42.626;23.308;2023-03-12T08:36:32;91762.59;;;1.13;54.98
38558;BME280;24333;42.626;23.308;2023-03-12T08:39:04;91773.22;;;1.31;55.45
38558;BME280;24333;42.626;23.308;2023-03-12T09:21:09;91783.97;;;1.52;53.87
38558;BME280;24333;42.626;23.308;2023-03-12T09:34:42;91776.56;;;1.83;55.50
38558;BME280;24333;42.626;23.308;2023-03-12T09:39:43;91785.66;;;1.78;54.23
38558;BME280;24333;42.626;23.308;2023-03-12T09:42:21;91795.47;;;1.95;55.44
38558;BME280;24333;42.626;23.308;2023-03-12T09:45:04;91779.31;;;1.95;55.08
38558;BME280;24333;42.626;23.308;2023-03-12T09:47:39;91771.03;;;2.00;54.40
38558;BME280;24333;42.626;23.308;2023-03-12T09:55:57;91782.56;;;2.01;54.77
38558;BME280;24333;42.626;23.308;2023-03-12T09:58:52;91787.13;;;2.22;56.16
38558;BME280;24333;42.626;23.308;2023-03-12T10:06:59;91799.28;;;2.53;52.54
38558;BME280;24333;42.626;23.308;2023-03-12T10:15:47;91790.88;;;3.04;53.70
38558;BME280;24333;42.626;23.308;2023-03-12T10:26:57;91780.66;;;3.63;52.15
38558;BME280;24333;42.626;23.308;2023-03-12T10:29:35;91779.69;;;3.84;50.81
38558;BME280;24333;42.626;23.308;2023-03-12T10:34:41;91778.25;;;3.45;50.22
38558;BME280;24333;42.626;23.308;2023-03-12T10:37:21;91787.03;;;3.30;51.11
38558;BME280;24333;42.626;23.308;2023-03-12T10:39:50;91775.47;;;3.17;49.93
38558;BME280;24333;42.626;23.308;2023-03-12T10:42:20;91793.84;;;3.40;51.56
38558;BME280;24333;42.626;23.308;2023-03-12T10:44:50;91787.41;;;3.57;51.97
38558;BME280;24333;42.626;23.308;2023-03-12T10:49:46;91790.34;;;3.52;50.86
38558;BME280;24333;42.626;23.308;2023-03-12T10:52:19;91790.56;;;3.59;50.59
38558;BME280;24333;42.626;23.308;2023-03-12T10:54:47;91792.25;;;3.92;51.41
38558;BME280;24333;42.626;23.308;2023-03-12T10:57:14;91783.72;;;3.61;49.15
38558;BME280;24333;42.626;23.308;2023-03-12T10:59:42;91788.41;;;3.65;49.82
38558;BME280;24333;42.626;23.308;2023-03-12T11:04:55;91792.59;;;3.50;51.09
38558;BME280;24333;42.626;23.308;2023-03-12T11:07:27;91793.78;;;3.24;50.23
38558;BME280;24333;42.626;23.308;2023-03-12T11:12:35;91787.81;;;3.18;52.66
38558;BME280;24333;42.626;23.308;2023-03-12T11:15:22;91772.25;;;3.11;52.82
38558;BME280;24333;42.626;23.308;2023-03-12T11:17:49;91773.53;;;3.30;51.57
38558;BME280;24333;42.626;23.308;2023-03-12T11:22:47;91792.38;;;3.55;50.96
38558;BME280;24333;42.626;23.308;2023-03-12T11:25:27;91777.88;;;3.47;50.08
38558;BME280;24333;42.626;23.308;2023-03-12T11:27:59;91769.53;;;3.65;50.95
38558;BME280;24333;42.626;23.308;2023-03-12T11:30:38;91785.16;;;3.71;50.95
38558;BME280;24333;42.626;23.308;2023-03-12T11:33:03;91776.31;;;3.87;50.60
38558;BME280;24333;42.626;23.308;2023-03-12T11:36:00;91783.72;;;3.90;49.21
38558;BME280;24333;42.626;23.308;2023-03-12T11:38:40;91785.66;;;4.05;49.91
38558;BME280;24333;42.626;23.308;2023-03-12T11:41:26;91778.25;;;4.02;49.97
38558;BME280;24333;42.626;23.308;2023-03-12T11:44:11;91772.16;;;3.89;49.48
38558;BME280;24333;42.626;23.308;2023-03-12T11:57:17;91768.88;;;4.12;48.00
38558;BME280;24333;42.626;23.308;2023-03-12T11:59:57;91781.75;;;3.74;49.15
38558;BME280;24333;42.626;23.308;2023-03-12T12:15:03;91781.22;;;4.58;46.93
38558;BME280;24333;42.626;23.308;2023-03-12T12:41:25;91782.59;;;3.91;48.12
38558;BME280;24333;42.626;23.308;2023-03-12T12:44:16;91785.22;;;3.75;48.28
38558;BME280;24333;42.626;23.308;2023-03-12T12:46:47;91792.75;;;3.69;48.32
38558;BME280;24333;42.626;23.308;2023-03-12T13:02:04;91757.91;;;4.05;47.88
38558;BME280;24333;42.626;23.308;2023-03-12T13:04:37;91784.59;;;4.39;48.90
38558;BME280;24333;42.626;23.308;2023-03-12T13:09:52;91782.03;;;4.14;48.23
38558;BME280;24333;42.626;23.308;2023-03-12T13:15:47;91786.03;;;4.04;49.27
38558;BME280;24333;42.626;23.308;2023-03-12T13:18:31;91781.00;;;4.18;47.78
38558;BME280;24333;42.626;23.308;2023-03-12T13:21:20;91783.97;;;4.29;48.47
38558;BME280;24333;42.626;23.308;2023-03-12T13:27:35;91768.69;;;4.05;48.36
38558;BME280;24333;42.626;23.308;2023-03-12T13:45:32;91810.84;;;5.54;46.88
38558;BME280;24333;42.626;23.308;2023-03-12T13:48:14;91816.78;;;5.79;45.44
38558;BME280;24333;42.626;23.308;2023-03-12T13:51:34;91814.78;;;5.57;46.08
38558;BME280;24333;42.626;23.308;2023-03-12T13:54:04;91822.19;;;5.60;46.22
38558;BME280;24333;42.626;23.308;2023-03-12T13:56:31;91818.09;;;5.14;45.68
38558;BME280;24333;42.626;23.308;2023-03-12T13:59:02;91816.88;;;4.96;45.70
38558;BME280;24333;42.626;23.308;2023-03-12T14:01:49;91815.63;;;4.77;47.24
38558;BME280;24333;42.626;23.308;2023-03-12T14:04:22;91822.19;;;4.60;47.55
38558;BME280;24333;42.626;23.308;2023-03-12T18:06:14;92127.22;;;2.21;53.77
38558;BME280;24333;42.626;23.308;2023-03-12T18:09:09;92147.41;;;2.36;54.33
38558;BME280;24333;42.626;23.308;2023-03-12T18:11:54;92129.09;;;2.20;55.13
38558;BME280;24333;42.626;23.308;2023-03-12T18:14:37;92144.91;;;2.30;54.99
38558;BME280;24333;42.626;23.308;2023-03-12T18:36:00;92147.50;;;1.79;56.00
38558;BME280;24333;42.626;23.308;2023-03-12T18:38:41;92156.31;;;1.80;56.23
38558;BME280;24333;42.626;23.308;2023-03-12T20:16:08;92281.81;;;0.24;66.96
38558;BME280;24333;42.626;23.308;2023-03-12T20:18:41;92281.00;;;0.24;69.45
38558;BME280;24333;42.626;23.308;2023-03-12T20:21:07;92284.50;;;0.24;67.50
38558;BME280;24333;42.626;23.308;2023-03-12T20:23:34;92272.31;;;0.18;69.13
38558;BME280;24333;42.626;23.308;2023-03-12T20:26:21;92289.38;;;0.22;69.56
38558;BME280;24333;42.626;23.308;2023-03-12T20:28:47;92294.25;;;0.20;70.33
38558;BME280;24333;42.626;23.308;2023-03-12T20:31:14;92272.56;;;0.08;72.28
38558;BME280;24333;42.626;23.308;2023-03-12T20:33:40;92288.03;;;0.11;73.18
38558;BME280;24333;42.626;23.308;2023-03-12T20:36:18;92297.84;;;0.16;70.48
38558;BME280;24333;42.626;23.308;2023-03-12T20:38:47;92280.75;;;0.03;70.22
38558;BME280;24333;42.626;23.308;2023-03-12T20:41:13;92287.25;;;0.10;73.28
38558;BME280;24333;42.626;23.308;2023-03-12T20:43:42;92284.75;;;0.14;76.71
